sensor_id;sensor_type;location;lat;lon;timestamp;temperature;humidity
32217;DHT22;67098;51.140;4.088;2023-06-26T00:00:53;25.90;59.50
32217;DHT22;67098;51.140;4.088;2023-06-26T00:03:19;25.90;59.20
32217;DHT22;67098;51.140;4.088;2023-06-26T00:05:44;25.90;59.30
32217;DHT22;67098;51.140;4.088;2023-06-26T00:08:10;25.90;59.30
32217;DHT22;67098;51.140;4.088;2023-06-26T00:10:36;25.90;59.30
32217;DHT22;67098;51.140;4.088;2023-06-26T00:13:02;26.00;58.20
32217;DHT22;67098;51.140;4.088;2023-06-26T00:15:29;25.90;58.00
32217;DHT22;67098;51.140;4.088;2023-06-26T00:18:00;25.70;58.00
32217;DHT22;67098;51.140;4.088;2023-06-26T00:20:25;25.60;58.20
32217;DHT22;67098;51.140;4.088;2023-06-26T00:22:51;25.60;58.20
32217;DHT22;67098;51.140;4.088;2023-06-26T00:25:19;25.60;58.60
32217;DHT22;67098;51.140;4.088;2023-06-26T00:27:45;25.60;58.30
32217;DHT22;67098;51.140;4.088;2023-06-26T00:30:11;25.50;58.50
32217;DHT22;67098;51.140;4.088;2023-06-26T00:32:37;25.60;58.50
32217;DHT22;67098;51.140;4.088;2023-06-26T00:35:03;25.60;58.30
32217;DHT22;67098;51.140;4.088;2023-06-26T00:37:29;25.50;58.40
32217;DHT22;67098;51.140;4.088;2023-06-26T00:39:54;25.50;58.70
32217;DHT22;67098;51.140;4.088;2023-06-26T00:42:20;25.50;58.60
32217;DHT22;67098;51.140;4.088;2023-06-26T00:44:46;25.40;58.60
32217;DHT22;67098;51.140;4.088;2023-06-26T00:47:15;25.30;58.90
32217;DHT22;67098;51.140;4.088;2023-06-26T00:49:41;25.30;59.00
32217;DHT22;67098;51.140;4.088;2023-06-26T00:52:07;25.30;59.30
32217;DHT22;67098;51.140;4.088;2023-06-26T00:54:33;25.10;59.60
32217;DHT22;67098;51.140;4.088;2023-06-26T00:56:59;25.00;60.00
32217;DHT22;67098;51.140;4.088;2023-06-26T00:59:25;24.90;60.90
32217;DHT22;67098;51.140;4.088;2023-06-26T01:01:50;24.90;60.90
32217;DHT22;67098;51.140;4.088;2023-06-26T01:04:16;24.80;61.20
32217;DHT22;67098;51.140;4.088;2023-06-26T01:06:46;24.90;61.40
32217;DHT22;67098;51.140;4.088;2023-06-26T01:09:20;25.00;61.00
32217;DHT22;67098;51.140;4.088;2023-06-26T01:11:46;25.00;61.20
32217;DHT22;67098;51.140;4.088;2023-06-26T01:14:12;25.00;61.20
32217;DHT22;67098;51.140;4.088;2023-06-26T01:16:39;24.90;61.40
32217;DHT22;67098;51.140;4.088;2023-06-26T01:19:16;24.90;61.70
32217;DHT22;67098;51.140;4.088;2023-06-26T01:21:51;24.80;62.40
32217;DHT22;67098;51.140;4.088;2023-06-26T01:24:22;24.70;63.20
32217;DHT22;67098;51.140;4.088;2023-06-26T01:26:53;24.50;63.50
32217;DHT22;67098;51.140;4.088;2023-06-26T01:29:20;24.40;64.10
32217;DHT22;67098;51.140;4.088;2023-06-26T01:31:48;24.40;64.30
32217;DHT22;67098;51.140;4.088;2023-06-26T01:34:18;24.50;64.40
32217;DHT22;67098;51.140;4.088;2023-06-26T01:36:45;24.50;64.20
32217;DHT22;67098;51.140;4.088;2023-06-26T01:39:15;24.50;64.50
32217;DHT22;67098;51.140;4.088;2023-06-26T01:41:41;24.50;64.70
32217;DHT22;67098;51.140;4.088;2023-06-26T01:44:25;24.40;65.40
32217;DHT22;67098;51.140;4.088;2023-06-26T01:57:48;24.30;66.70
32217;DHT22;67098;51.140;4.088;2023-06-26T02:00:17;24.20;67.40
32217;DHT22;67098;51.140;4.088;2023-06-26T02:02:45;24.20;67.40
32217;DHT22;67098;51.140;4.088;2023-06-26T02:05:12;24.30;67.50
32217;DHT22;67098;51.140;4.088;2023-06-26T02:07:38;24.20;67.90
32217;DHT22;67098;51.140;4.088;2023-06-26T02:10:04;24.20;68.10
32217;DHT22;67098;51.140;4.088;2023-06-26T02:12:30;24.10;68.50
32217;DHT22;67098;51.140;4.088;2023-06-26T02:14:56;24.10;68.80
32217;DHT22;67098;51.140;4.088;2023-06-26T02:17:21;24.10;69.30
32217;DHT22;67098;51.140;4.088;2023-06-26T02:19:47;24.00;69.90
32217;DHT22;67098;51.140;4.088;2023-06-26T02:22:16;24.00;70.30
32217;DHT22;67098;51.140;4.088;2023-06-26T02:24:43;23.80;71.10
32217;DHT22;67098;51.140;4.088;2023-06-26T02:27:09;23.70;71.90
32217;DHT22;67098;51.140;4.088;2023-06-26T02:29:36;23.60;72.60
32217;DHT22;67098;51.140;4.088;2023-06-26T02:32:02;23.50;73.10
32217;DHT22;67098;51.140;4.088;2023-06-26T02:34:28;23.40;74.10
32217;DHT22;67098;51.140;4.088;2023-06-26T02:36:54;23.30;74.30
32217;DHT22;67098;51.140;4.088;2023-06-26T02:39:21;23.30;74.90
32217;DHT22;67098;51.140;4.088;2023-06-26T02:41:46;23.40;75.20
32217;DHT22;67098;51.140;4.088;2023-06-26T02:44:12;23.30;75.80
32217;DHT22;67098;51.140;4.088;2023-06-26T02:46:40;23.30;75.80
32217;DHT22;67098;51.140;4.088;2023-06-26T02:49:06;23.20;76.90
32217;DHT22;67098;51.140;4.088;2023-06-26T02:51:33;23.10;77.40
32217;DHT22;67098;51.140;4.088;2023-06-26T02:53:59;23.00;77.90
32217;DHT22;67098;51.140;4.088;2023-06-26T02:56:26;22.90;78.30
32217;DHT22;67098;51.140;4.088;2023-06-26T02:58:55;23.00;78.60
32217;DHT22;67098;51.140;4.088;2023-06-26T03:01:21;22.90;78.70
32217;DHT22;67098;51.140;4.088;2023-06-26T03:03:47;22.90;79.20
32217;DHT22;67098;51.140;4.088;2023-06-26T03:06:14;22.80;79.70
32217;DHT22;67098;51.140;4.088;2023-06-26T03:08:40;22.90;79.60
32217;DHT22;67098;51.140;4.088;2023-06-26T03:11:07;22.80;80.20
32217;DHT22;67098;51.140;4.088;2023-06-26T03:13:34;22.70;80.60
32217;DHT22;67098;51.140;4.088;2023-06-26T03:16:00;22.70;80.50
32217;DHT22;67098;51.140;4.088;2023-06-26T03:18:26;22.60;80.80
32217;DHT22;67098;51.140;4.088;2023-06-26T03:20:52;22.50;81.50
32217;DHT22;67098;51.140;4.088;2023-06-26T03:23:21;22.30;82.20
32217;DHT22;67098;51.140;4.088;2023-06-26T03:25:48;22.40;82.30
32217;DHT22;67098;51.140;4.088;2023-06-26T03:28:14;22.40;82.30
32217;DHT22;67098;51.140;4.088;2023-06-26T03:30:40;22.30;82.40
32217;DHT22;67098;51.140;4.088;2023-06-26T03:33:06;22.30;82.70
32217;DHT22;67098;51.140;4.088;2023-06-26T03:35:31;22.20;82.90
32217;DHT22;67098;51.140;4.088;2023-06-26T03:37:58;22.20;83.20
32217;DHT22;67098;51.140;4.088;2023-06-26T03:40:24;22.30;82.90
32217;DHT22;67098;51.140;4.088;2023-06-26T03:42:49;22.30;83.30
32217;DHT22;67098;51.140;4.088;2023-06-26T03:45:15;22.30;83.30
32217;DHT22;67098;51.140;4.088;2023-06-26T03:47:41;22.20;83.60
32217;DHT22;67098;51.140;4.088;2023-06-26T03:50:07;22.10;83.90
32217;DHT22;67098;51.140;4.088;2023-06-26T03:52:33;22.10;84.00
32217;DHT22;67098;51.140;4.088;2023-06-26T03:54:59;22.10;83.70
32217;DHT22;67098;51.140;4.088;2023-06-26T03:57:25;22.10;84.30
32217;DHT22;67098;51.140;4.088;2023-06-26T03:59:52;22.10;84.10
32217;DHT22;67098;51.140;4.088;2023-06-26T04:02:17;22.10;84.30
32217;DHT22;67098;51.140;4.088;2023-06-26T04:04:44;22.00;84.70
32217;DHT22;67098;51.140;4.088;2023-06-26T04:07:10;22.00;84.60
32217;DHT22;67098;51.140;4.088;2023-06-26T04:09:35;22.00;84.50
32217;DHT22;67098;51.140;4.088;2023-06-26T04:12:01;22.10;84.50
32217;DHT22;67098;51.140;4.088;2023-06-26T04:14:27;21.90;85.00
32217;DHT22;67098;51.140;4.088;2023-06-26T04:16:53;21.90;85.00
32217;DHT22;67098;51.140;4.088;2023-06-26T04:19:19;22.00;85.00
32217;DHT22;67098;51.140;4.088;2023-06-26T04:21:45;22.00;84.90
32217;DHT22;67098;51.140;4.088;2023-06-26T04:24:11;22.10;84.50
32217;DHT22;67098;51.140;4.088;2023-06-26T04:26:37;22.00;84.50
32217;DHT22;67098;51.140;4.088;2023-06-26T04:29:06;22.10;84.40
32217;DHT22;67098;51.140;4.088;2023-06-26T04:31:32;22.10;84.00
32217;DHT22;67098;51.140;4.088;2023-06-26T04:33:58;22.10;84.00
32217;DHT22;67098;51.140;4.088;2023-06-26T04:36:25;22.10;83.70
32217;DHT22;67098;51.140;4.088;2023-06-26T04:38:54;22.20;83.60
32217;DHT22;67098;51.140;4.088;2023-06-26T04:41:21;22.10;83.60
32217;DHT22;67098;51.140;4.088;2023-06-26T04:43:47;22.00;83.90
32217;DHT22;67098;51.140;4.088;2023-06-26T04:46:13;22.10;83.80
32217;DHT22;67098;51.140;4.088;2023-06-26T04:48:38;22.10;83.90
32217;DHT22;67098;51.140;4.088;2023-06-26T04:51:04;22.10;83.60
32217;DHT22;67098;51.140;4.088;2023-06-26T04:53:30;22.30;83.00
32217;DHT22;67098;51.140;4.088;2023-06-26T04:55:55;22.30;83.00
32217;DHT22;67098;51.140;4.088;2023-06-26T04:58:21;22.40;82.20
32217;DHT22;67098;51.140;4.088;2023-06-26T05:00:47;22.30;82.40
32217;DHT22;67098;51.140;4.088;2023-06-26T05:03:14;22.40;81.80
32217;DHT22;67098;51.140;4.088;2023-06-26T05:05:42;22.40;82.00
32217;DHT22;67098;51.140;4.088;2023-06-26T05:10:40;22.60;80.80
32217;DHT22;67098;51.140;4.088;2023-06-26T05:13:06;22.50;80.90
32217;DHT22;67098;51.140;4.088;2023-06-26T05:15:32;22.50;80.90
32217;DHT22;67098;51.140;4.088;2023-06-26T05:17:57;22.50;80.50
32217;DHT22;67098;51.140;4.088;2023-06-26T05:20:23;22.50;80.80
32217;DHT22;67098;51.140;4.088;2023-06-26T05:22:49;22.60;80.40
32217;DHT22;67098;51.140;4.088;2023-06-26T05:25:15;22.60;79.70
32217;DHT22;67098;51.140;4.088;2023-06-26T05:27:41;22.70;79.50
32217;DHT22;67098;51.140;4.088;2023-06-26T05:30:08;22.70;79.50
32217;DHT22;67098;51.140;4.088;2023-06-26T05:32:35;22.80;79.20
32217;DHT22;67098;51.140;4.088;2023-06-26T05:35:02;23.00;78.90
32217;DHT22;67098;51.140;4.088;2023-06-26T05:37:33;23.10;78.00
32217;DHT22;67098;51.140;4.088;2023-06-26T05:39:59;23.30;77.20
32217;DHT22;67098;51.140;4.088;2023-06-26T05:42:27;23.30;76.90
32217;DHT22;67098;51.140;4.088;2023-06-26T05:44:53;23.30;76.70
32217;DHT22;67098;51.140;4.088;2023-06-26T05:47:19;23.30;76.80
32217;DHT22;67098;51.140;4.088;2023-06-26T05:49:45;23.40;77.70
32217;DHT22;67098;51.140;4.088;2023-06-26T05:52:11;23.60;77.30
32217;DHT22;67098;51.140;4.088;2023-06-26T05:54:37;23.70;76.80
32217;DHT22;67098;51.140;4.088;2023-06-26T05:57:03;24.00;75.70
32217;DHT22;67098;51.140;4.088;2023-06-26T05:59:31;24.20;75.10
32217;DHT22;67098;51.140;4.088;2023-06-26T06:01:57;24.30;74.00
32217;DHT22;67098;51.140;4.088;2023-06-26T06:04:23;24.40;73.50
32217;DHT22;67098;51.140;4.088;2023-06-26T06:06:49;24.40;73.10
32217;DHT22;67098;51.140;4.088;2023-06-26T06:09:14;24.60;71.90
32217;DHT22;67098;51.140;4.088;2023-06-26T06:11:41;24.50;70.70
32217;DHT22;67098;51.140;4.088;2023-06-26T06:14:07;24.50;70.40
32217;DHT22;67098;51.140;4.088;2023-06-26T06:16:33;24.50;70.80
32217;DHT22;67098;51.140;4.088;2023-06-26T06:18:59;24.50;69.50
32217;DHT22;67098;51.140;4.088;2023-06-26T06:21:24;24.50;69.50
32217;DHT22;67098;51.140;4.088;2023-06-26T06:23:50;24.60;68.60
32217;DHT22;67098;51.140;4.088;2023-06-26T06:26:16;24.70;68.80
32217;DHT22;67098;51.140;4.088;2023-06-26T06:28:42;25.00;68.10
32217;DHT22;67098;51.140;4.088;2023-06-26T06:31:08;25.30;67.50
32217;DHT22;67098;51.140;4.088;2023-06-26T06:33:33;25.20;65.60
32217;DHT22;67098;51.140;4.088;2023-06-26T06:35:59;25.20;65.70
32217;DHT22;67098;51.140;4.088;2023-06-26T06:38:25;25.30;64.50
32217;DHT22;67098;51.140;4.088;2023-06-26T06:40:51;25.10;64.40
32217;DHT22;67098;51.140;4.088;2023-06-26T06:43:17;25.10;64.20
32217;DHT22;67098;51.140;4.088;2023-06-26T06:45:42;25.10;64.40
32217;DHT22;67098;51.140;4.088;2023-06-26T06:48:08;25.30;63.80
32217;DHT22;67098;51.140;4.088;2023-06-26T06:50:34;25.70;63.60
32217;DHT22;67098;51.140;4.088;2023-06-26T06:52:59;25.70;62.10
32217;DHT22;67098;51.140;4.088;2023-06-26T06:55:25;25.90;61.90
32217;DHT22;67098;51.140;4.088;2023-06-26T06:57:51;25.90;61.10
32217;DHT22;67098;51.140;4.088;2023-06-26T07:00:17;25.70;61.00
32217;DHT22;67098;51.140;4.088;2023-06-26T07:02:44;25.80;60.40
32217;DHT22;67098;51.140;4.088;2023-06-26T07:05:10;25.80;60.00
32217;DHT22;67098;51.140;4.088;2023-06-26T07:07:37;26.00;59.40
32217;DHT22;67098;51.140;4.088;2023-06-26T07:10:13;26.20;58.90
32217;DHT22;67098;51.140;4.088;2023-06-26T07:12:39;26.30;58.60
32217;DHT22;67098;51.140;4.088;2023-06-26T07:15:06;26.60;58.60
32217;DHT22;67098;51.140;4.088;2023-06-26T07:17:33;27.10;57.90
32217;DHT22;67098;51.140;4.088;2023-06-26T07:20:00;27.40;57.30
32217;DHT22;67098;51.140;4.088;2023-06-26T07:22:26;27.50;56.70
32217;DHT22;67098;51.140;4.088;2023-06-26T07:24:52;27.30;56.90
32217;DHT22;67098;51.140;4.088;2023-06-26T07:27:19;27.30;57.30
32217;DHT22;67098;51.140;4.088;2023-06-26T07:29:45;27.30;57.00
32217;DHT22;67098;51.140;4.088;2023-06-26T07:32:11;27.20;56.50
32217;DHT22;67098;51.140;4.088;2023-06-26T07:34:37;27.60;56.50
32217;DHT22;67098;51.140;4.088;2023-06-26T07:37:06;27.80;55.00
32217;DHT22;67098;51.140;4.088;2023-06-26T07:39:32;27.90;55.40
32217;DHT22;67098;51.140;4.088;2023-06-26T07:41:58;27.70;54.90
32217;DHT22;67098;51.140;4.088;2023-06-26T07:44:25;27.70;55.20
32217;DHT22;67098;51.140;4.088;2023-06-26T07:46:51;27.90;55.10
32217;DHT22;67098;51.140;4.088;2023-06-26T07:49:16;28.00;54.70
32217;DHT22;67098;51.140;4.088;2023-06-26T07:51:42;27.90;53.70
32217;DHT22;67098;51.140;4.088;2023-06-26T07:54:08;28.10;54.30
32217;DHT22;67098;51.140;4.088;2023-06-26T07:57:12;28.10;53.50
32217;DHT22;67098;51.140;4.088;2023-06-26T07:59:38;28.50;53.90
32217;DHT22;67098;51.140;4.088;2023-06-26T08:02:04;29.00;52.90
32217;DHT22;67098;51.140;4.088;2023-06-26T08:04:31;29.40;52.00
32217;DHT22;67098;51.140;4.088;2023-06-26T08:06:58;29.40;50.80
32217;DHT22;67098;51.140;4.088;2023-06-26T08:09:28;29.50;50.00
32217;DHT22;67098;51.140;4.088;2023-06-26T08:11:54;29.20;50.00
32217;DHT22;67098;51.140;4.088;2023-06-26T08:14:20;29.10;50.50
32217;DHT22;67098;51.140;4.088;2023-06-26T08:16:46;29.40;50.60
32217;DHT22;67098;51.140;4.088;2023-06-26T08:19:13;29.80;50.10
32217;DHT22;67098;51.140;4.088;2023-06-26T08:21:40;29.90;49.50
32217;DHT22;67098;51.140;4.088;2023-06-26T08:24:06;29.80;50.30
32217;DHT22;67098;51.140;4.088;2023-06-26T08:26:33;29.30;50.60
32217;DHT22;67098;51.140;4.088;2023-06-26T08:28:59;29.00;51.30
32217;DHT22;67098;51.140;4.088;2023-06-26T08:31:25;29.30;51.70
32217;DHT22;67098;51.140;4.088;2023-06-26T08:33:50;29.70;51.10
32217;DHT22;67098;51.140;4.088;2023-06-26T08:36:16;29.70;50.10
32217;DHT22;67098;51.140;4.088;2023-06-26T08:38:42;30.00;49.90
32217;DHT22;67098;51.140;4.088;2023-06-26T08:41:08;30.00;50.00
32217;DHT22;67098;51.140;4.088;2023-06-26T08:43:35;30.10;49.30
32217;DHT22;67098;51.140;4.088;2023-06-26T08:46:02;30.20;49.70
32217;DHT22;67098;51.140;4.088;2023-06-26T08:48:32;30.60;49.90
32217;DHT22;67098;51.140;4.088;2023-06-26T08:51:08;30.50;49.60
32217;DHT22;67098;51.140;4.088;2023-06-26T08:56:13;29.90;49.50
32217;DHT22;67098;51.140;4.088;2023-06-26T08:58:40;30.20;50.50
32217;DHT22;67098;51.140;4.088;2023-06-26T09:01:06;30.50;49.80
32217;DHT22;67098;51.140;4.088;2023-06-26T09:03:33;31.10;48.20
32217;DHT22;67098;51.140;4.088;2023-06-26T09:05:59;31.20;47.60
32217;DHT22;67098;51.140;4.088;2023-06-26T09:08:25;31.30;47.40
32217;DHT22;67098;51.140;4.088;2023-06-26T09:10:52;31.10;47.70
32217;DHT22;67098;51.140;4.088;2023-06-26T09:13:18;30.70;48.40
32217;DHT22;67098;51.140;4.088;2023-06-26T09:15:44;30.80;47.80
32217;DHT22;67098;51.140;4.088;2023-06-26T09:18:11;30.90;47.40
32217;DHT22;67098;51.140;4.088;2023-06-26T09:20:37;30.90;47.30
32217;DHT22;67098;51.140;4.088;2023-06-26T09:23:03;30.30;47.40
32217;DHT22;67098;51.140;4.088;2023-06-26T09:25:29;29.90;47.60
32217;DHT22;67098;51.140;4.088;2023-06-26T09:27:56;30.50;47.70
32217;DHT22;67098;51.140;4.088;2023-06-26T09:30:22;30.80;47.30
32217;DHT22;67098;51.140;4.088;2023-06-26T09:32:48;30.90;47.10
32217;DHT22;67098;51.140;4.088;2023-06-26T09:35:16;31.20;47.40
32217;DHT22;67098;51.140;4.088;2023-06-26T09:37:43;31.40;45.50
32217;DHT22;67098;51.140;4.088;2023-06-26T09:40:09;31.40;45.60
32217;DHT22;67098;51.140;4.088;2023-06-26T09:42:35;32.00;45.20
32217;DHT22;67098;51.140;4.088;2023-06-26T09:45:02;32.00;44.20
32217;DHT22;67098;51.140;4.088;2023-06-26T09:47:30;32.00;43.60
32217;DHT22;67098;51.140;4.088;2023-06-26T09:49:56;32.10;43.20
32217;DHT22;67098;51.140;4.088;2023-06-26T09:52:26;32.40;43.30
32217;DHT22;67098;51.140;4.088;2023-06-26T09:55:07;32.30;43.80
32217;DHT22;67098;51.140;4.088;2023-06-26T09:57:34;32.70;43.10
32217;DHT22;67098;51.140;4.088;2023-06-26T10:00:02;32.90;42.30
32217;DHT22;67098;51.140;4.088;2023-06-26T10:02:29;33.00;41.00
32217;DHT22;67098;51.140;4.088;2023-06-26T10:04:55;33.10;41.70
32217;DHT22;67098;51.140;4.088;2023-06-26T10:07:21;33.60;41.90
32217;DHT22;67098;51.140;4.088;2023-06-26T10:09:50;33.60;41.30
32217;DHT22;67098;51.140;4.088;2023-06-26T10:12:20;33.60;42.00
32217;DHT22;67098;51.140;4.088;2023-06-26T10:14:47;33.90;41.30
32217;DHT22;67098;51.140;4.088;2023-06-26T10:17:17;34.50;40.90
32217;DHT22;67098;51.140;4.088;2023-06-26T10:19:45;34.80;41.00
32217;DHT22;67098;51.140;4.088;2023-06-26T10:22:14;34.80;41.00
32217;DHT22;67098;51.140;4.088;2023-06-26T10:24:41;34.60;40.80
32217;DHT22;67098;51.140;4.088;2023-06-26T10:27:21;34.50;40.90
32217;DHT22;67098;51.140;4.088;2023-06-26T10:29:52;34.30;40.50
32217;DHT22;67098;51.140;4.088;2023-06-26T10:32:20;33.90;40.90
32217;DHT22;67098;51.140;4.088;2023-06-26T10:34:47;33.80;41.20
32217;DHT22;67098;51.140;4.088;2023-06-26T10:37:13;34.30;40.50
32217;DHT22;67098;51.140;4.088;2023-06-26T10:39:49;34.40;39.00
32217;DHT22;67098;51.140;4.088;2023-06-26T10:42:16;33.80;39.60
32217;DHT22;67098;51.140;4.088;2023-06-26T10:44:43;34.20;40.20
32217;DHT22;67098;51.140;4.088;2023-06-26T10:47:10;34.40;39.90
32217;DHT22;67098;51.140;4.088;2023-06-26T10:49:37;33.70;39.40
32217;DHT22;67098;51.140;4.088;2023-06-26T10:52:05;33.40;40.60
32217;DHT22;67098;51.140;4.088;2023-06-26T10:54:34;34.00;40.40
32217;DHT22;67098;51.140;4.088;2023-06-26T10:57:02;34.80;40.30
32217;DHT22;67098;51.140;4.088;2023-06-26T10:59:29;35.60;39.30
32217;DHT22;67098;51.140;4.088;2023-06-26T11:02:04;35.40;39.00
32217;DHT22;67098;51.140;4.088;2023-06-26T11:07:15;33.90;40.50
32217;DHT22;67098;51.140;4.088;2023-06-26T11:12:36;33.40;39.90
32217;DHT22;67098;51.140;4.088;2023-06-26T11:15:04;33.60;40.40
32217;DHT22;67098;51.140;4.088;2023-06-26T11:17:32;34.00;40.20
32217;DHT22;67098;51.140;4.088;2023-06-26T11:19:58;34.70;40.00
32217;DHT22;67098;51.140;4.088;2023-06-26T11:22:25;34.80;40.10
32217;DHT22;67098;51.140;4.088;2023-06-26T11:24:53;34.30;39.50
32217;DHT22;67098;51.140;4.088;2023-06-26T11:27:19;35.00;39.80
32217;DHT22;67098;51.140;4.088;2023-06-26T11:29:50;35.40;39.00
32217;DHT22;67098;51.140;4.088;2023-06-26T11:32:16;36.00;38.80
32217;DHT22;67098;51.140;4.088;2023-06-26T11:34:41;36.30;38.60
32217;DHT22;67098;51.140;4.088;2023-06-26T11:37:08;36.70;37.70
32217;DHT22;67098;51.140;4.088;2023-06-26T11:39:34;36.20;37.20
32217;DHT22;67098;51.140;4.088;2023-06-26T11:42:00;35.40;37.00
32217;DHT22;67098;51.140;4.088;2023-06-26T11:44:30;35.30;37.10
32217;DHT22;67098;51.140;4.088;2023-06-26T11:46:57;35.50;37.00
32217;DHT22;67098;51.140;4.088;2023-06-26T11:49:23;35.70;36.20
32217;DHT22;67098;51.140;4.088;2023-06-26T11:51:51;35.60;36.40
32217;DHT22;67098;51.140;4.088;2023-06-26T11:54:24;36.30;37.00
32217;DHT22;67098;51.140;4.088;2023-06-26T11:56:57;36.90;37.20
32217;DHT22;67098;51.140;4.088;2023-06-26T11:59:24;36.50;36.90
32217;DHT22;67098;51.140;4.088;2023-06-26T12:01:56;36.80;35.90
32217;DHT22;67098;51.140;4.088;2023-06-26T12:04:23;37.30;35.50
32217;DHT22;67098;51.140;4.088;2023-06-26T12:06:51;37.50;35.40
32217;DHT22;67098;51.140;4.088;2023-06-26T12:09:19;36.60;34.70
32217;DHT22;67098;51.140;4.088;2023-06-26T12:11:47;35.90;35.50
32217;DHT22;67098;51.140;4.088;2023-06-26T12:14:17;35.90;36.40
32217;DHT22;67098;51.140;4.088;2023-06-26T12:16:44;35.90;35.80
32217;DHT22;67098;51.140;4.088;2023-06-26T12:19:10;35.40;35.00
32217;DHT22;67098;51.140;4.088;2023-06-26T12:24:02;36.00;36.50
32217;DHT22;67098;51.140;4.088;2023-06-26T12:26:29;36.70;35.60
32217;DHT22;67098;51.140;4.088;2023-06-26T12:29:35;36.90;35.00
32217;DHT22;67098;51.140;4.088;2023-06-26T12:31:53;37.20;35.00
32217;DHT22;67098;51.140;4.088;2023-06-26T12:34:21;37.40;34.50
32217;DHT22;67098;51.140;4.088;2023-06-26T12:36:50;37.60;34.10
32217;DHT22;67098;51.140;4.088;2023-06-26T12:39:18;38.20;33.70
32217;DHT22;67098;51.140;4.088;2023-06-26T12:42:08;38.30;33.70
32217;DHT22;67098;51.140;4.088;2023-06-26T12:44:33;38.60;33.50
32217;DHT22;67098;51.140;4.088;2023-06-26T12:47:01;38.90;33.20
32217;DHT22;67098;51.140;4.088;2023-06-26T12:49:31;38.90;32.70
32217;DHT22;67098;51.140;4.088;2023-06-26T12:52:00;39.40;33.50
32217;DHT22;67098;51.140;4.088;2023-06-26T12:54:27;39.80;33.10
32217;DHT22;67098;51.140;4.088;2023-06-26T12:56:53;40.10;32.70
32217;DHT22;67098;51.140;4.088;2023-06-26T12:59:19;40.20;32.40
32217;DHT22;67098;51.140;4.088;2023-06-26T13:01:44;40.00;32.40
32217;DHT22;67098;51.140;4.088;2023-06-26T13:04:10;39.60;32.10
32217;DHT22;67098;51.140;4.088;2023-06-26T13:06:36;38.80;32.40
32217;DHT22;67098;51.140;4.088;2023-06-26T13:09:02;38.90;32.80
32217;DHT22;67098;51.140;4.088;2023-06-26T13:11:30;39.30;32.70
32217;DHT22;67098;51.140;4.088;2023-06-26T13:13:56;39.40;32.50
32217;DHT22;67098;51.140;4.088;2023-06-26T13:16:22;39.60;32.50
32217;DHT22;67098;51.140;4.088;2023-06-26T13:18:47;39.60;32.00
32217;DHT22;67098;51.140;4.088;2023-06-26T13:21:14;39.90;31.70
32217;DHT22;67098;51.140;4.088;2023-06-26T13:23:40;40.10;31.40
32217;DHT22;67098;51.140;4.088;2023-06-26T13:26:07;40.20;31.20
32217;DHT22;67098;51.140;4.088;2023-06-26T13:28:32;40.70;31.10
32217;DHT22;67098;51.140;4.088;2023-06-26T13:30:58;40.50;31.40
32217;DHT22;67098;51.140;4.088;2023-06-26T13:33:24;39.80;30.70
32217;DHT22;67098;51.140;4.088;2023-06-26T13:35:53;39.20;31.40
32217;DHT22;67098;51.140;4.088;2023-06-26T13:38:22;38.40;32.00
32217;DHT22;67098;51.140;4.088;2023-06-26T13:40:55;37.90;32.10
32217;DHT22;67098;51.140;4.088;2023-06-26T13:43:22;37.80;32.50
32217;DHT22;67098;51.140;4.088;2023-06-26T13:45:49;37.80;32.90
32217;DHT22;67098;51.140;4.088;2023-06-26T13:48:15;37.10;33.40
32217;DHT22;67098;51.140;4.088;2023-06-26T13:50:41;36.20;33.90
32217;DHT22;67098;51.140;4.088;2023-06-26T13:53:06;36.00;34.30
32217;DHT22;67098;51.140;4.088;2023-06-26T13:55:33;35.40;34.30
32217;DHT22;67098;51.140;4.088;2023-06-26T13:57:59;34.90;34.50
32217;DHT22;67098;51.140;4.088;2023-06-26T14:00:25;34.70;35.00
32217;DHT22;67098;51.140;4.088;2023-06-26T14:02:51;34.60;35.40
32217;DHT22;67098;51.140;4.088;2023-06-26T14:05:17;34.50;35.70
32217;DHT22;67098;51.140;4.088;2023-06-26T14:07:44;34.00;36.30
32217;DHT22;67098;51.140;4.088;2023-06-26T14:10:10;33.90;36.60
32217;DHT22;67098;51.140;4.088;2023-06-26T14:12:36;34.10;36.20
32217;DHT22;67098;51.140;4.088;2023-06-26T14:15:02;34.60;36.70
32217;DHT22;67098;51.140;4.088;2023-06-26T14:17:28;35.10;36.20
32217;DHT22;67098;51.140;4.088;2023-06-26T14:19:54;35.40;35.60
32217;DHT22;67098;51.140;4.088;2023-06-26T14:22:20;35.70;35.30
32217;DHT22;67098;51.140;4.088;2023-06-26T14:24:48;35.60;36.10
32217;DHT22;67098;51.140;4.088;2023-06-26T14:27:14;35.40;35.50
32217;DHT22;67098;51.140;4.088;2023-06-26T14:29:40;35.20;35.60
32217;DHT22;67098;51.140;4.088;2023-06-26T14:32:06;35.30;36.00
32217;DHT22;67098;51.140;4.088;2023-06-26T14:34:32;35.30;36.30
32217;DHT22;67098;51.140;4.088;2023-06-26T14:36:58;35.40;35.90
32217;DHT22;67098;51.140;4.088;2023-06-26T14:39:24;35.30;35.70
32217;DHT22;67098;51.140;4.088;2023-06-26T14:41:49;35.20;35.80
32217;DHT22;67098;51.140;4.088;2023-06-26T14:44:15;35.30;36.50
32217;DHT22;67098;51.140;4.088;2023-06-26T14:46:41;35.40;36.10
32217;DHT22;67098;51.140;4.088;2023-06-26T14:49:07;35.40;36.00
32217;DHT22;67098;51.140;4.088;2023-06-26T14:51:33;35.50;36.40
32217;DHT22;67098;51.140;4.088;2023-06-26T14:54:00;35.30;36.50
32217;DHT22;67098;51.140;4.088;2023-06-26T14:56:26;34.80;36.80
32217;DHT22;67098;51.140;4.088;2023-06-26T14:58:52;34.30;37.10
32217;DHT22;67098;51.140;4.088;2023-06-26T15:01:19;34.10;37.40
32217;DHT22;67098;51.140;4.088;2023-06-26T15:03:48;33.90;37.90
32217;DHT22;67098;51.140;4.088;2023-06-26T15:06:14;34.00;38.60
32217;DHT22;67098;51.140;4.088;2023-06-26T15:08:40;34.00;38.60
32217;DHT22;67098;51.140;4.088;2023-06-26T15:11:05;34.10;38.90
32217;DHT22;67098;51.140;4.088;2023-06-26T15:13:31;34.30;38.80
32217;DHT22;67098;51.140;4.088;2023-06-26T15:15:57;33.90;38.80
32217;DHT22;67098;51.140;4.088;2023-06-26T15:18:22;33.80;38.30
32217;DHT22;67098;51.140;4.088;2023-06-26T15:20:48;34.00;38.40
32217;DHT22;67098;51.140;4.088;2023-06-26T15:23:14;34.30;38.10
32217;DHT22;67098;51.140;4.088;2023-06-26T15:25:40;34.40;37.60
32217;DHT22;67098;51.140;4.088;2023-06-26T15:28:06;34.30;37.80
32217;DHT22;67098;51.140;4.088;2023-06-26T15:30:32;33.80;38.10
32217;DHT22;67098;51.140;4.088;2023-06-26T15:32:58;33.30;38.50
32217;DHT22;67098;51.140;4.088;2023-06-26T15:35:24;33.00;38.70
32217;DHT22;67098;51.140;4.088;2023-06-26T15:37:50;32.80;39.10
32217;DHT22;67098;51.140;4.088;2023-06-26T15:40:16;32.40;39.80
32217;DHT22;67098;51.140;4.088;2023-06-26T15:42:49;31.90;39.80
32217;DHT22;67098;51.140;4.088;2023-06-26T15:45:16;31.70;40.50
32217;DHT22;67098;51.140;4.088;2023-06-26T15:47:48;31.40;41.80
32217;DHT22;67098;51.140;4.088;2023-06-26T15:50:14;31.30;42.50
32217;DHT22;67098;51.140;4.088;2023-06-26T15:52:40;31.10;42.70